Time;durP1;ratioP1;P1;durP2;ratioP2;P2;SDS_P1;SDS_P2;PMS_P1;PMS_P2;Temp;Humidity;BMP_temperature;BMP_pressure;BME280_temperature;BME280_humidity;BME280_pressure;Samples;Min_cycle;Max_cycle;Signal;HPM_P1;HPM_P2
2022/08/15 00:02:20;;;;;;;2.08;1.50;;;;;;;23.58;47.43;92566.91;4938921;29;20656;-92
2022/08/15 00:04:47;;;;;;;1.73;1.20;;;;;;;23.57;47.38;92565.44;4898018;29;20537;-92
2022/08/15 00:07:17;;;;;;;1.70;1.23;;;;;;;23.59;47.51;92567.63;4937227;29;20043;-92
2022/08/15 00:09:55;;;;;;;2.20;1.67;;;;;;;23.57;47.62;92573.72;4902924;29;20142;-93
2022/08/15 00:12:22;;;;;;;1.77;1.38;;;;;;;23.58;47.28;92564.13;4940262;28;20075;-92
2022/08/15 00:14:58;;;;;;;1.67;1.10;;;;;;;23.56;47.22;92555.69;4903413;29;20036;-93
2022/08/15 00:17:29;;;;;;;1.67;1.38;;;;;;;23.57;47.65;92559.91;4941367;28;20046;-92
2022/08/15 00:19:58;;;;;;;1.77;1.08;;;;;;;23.55;47.46;92561.78;4903984;28;20059;-91
2022/08/15 00:22:25;;;;;;;2.07;1.47;;;;;;;23.57;47.46;92550.91;4954369;28;20420;-91
2022/08/15 00:24:52;;;;;;;1.63;1.38;;;;;;;23.56;47.40;92549.44;4902957;29;20788;-92
2022/08/15 00:27:23;;;;;;;1.38;1.17;;;;;;;23.55;47.53;92539.72;4950468;28;20043;-92
2022/08/15 00:30:13;;;;;;;1.85;1.45;;;;;;;23.55;47.60;92540.44;4924937;28;20048;-92
2022/08/15 00:32:39;;;;;;;2.03;1.63;;;;;;;23.58;47.76;92542.06;4966676;28;20058;-92
2022/08/15 00:35:36;;;;;;;1.23;1.13;;;;;;;23.55;47.42;92540.44;4990349;28;20042;-92
2022/08/15 00:38:06;;;;;;;2.07;1.43;;;;;;;23.55;47.54;92542.47;4976562;28;20038;-92
2022/08/15 00:43:41;;;;;;;1.70;1.42;;;;;;;23.55;47.18;92525.91;4996626;28;20069;-92
2022/08/15 00:46:11;;;;;;;1.83;1.33;;;;;;;23.55;47.49;92525.91;4973297;28;21149;-92
2022/08/15 00:48:43;;;;;;;;;;;;;;;23.55;47.48;92521.13;4969683;28;20061;-91
2022/08/15 00:51:19;;;;;;;1.58;1.20;;;;;;;23.52;47.48;92527.78;4998290;28;19921;-92
2022/08/15 00:53:55;;;;;;;2.58;1.75;;;;;;;23.51;47.66;92523.53;5014027;28;20579;-93
2022/08/15 00:56:22;;;;;;;2.50;1.20;;;;;;;23.52;47.56;92522.25;4996581;28;20037;-92
2022/08/15 00:58:55;;;;;;;2.10;1.40;;;;;;;23.51;47.56;92515.25;5021568;28;20060;-92
2022/08/15 01:01:25;;;;;;;1.50;1.25;;;;;;;23.52;47.53;92513.97;4953587;28;20049;-91
2022/08/15 01:04:07;;;;;;;2.08;1.10;;;;;;;23.51;47.28;92509.72;4987115;28;20034;-92
2022/08/15 01:06:47;;;;;;;1.73;1.23;;;;;;;23.51;47.61;92517.28;5012083;28;20046;-92
2022/08/15 01:09:23;;;;;;;1.67;1.40;;;;;;;23.51;47.56;92523.53;4945227;28;20038;-92
2022/08/15 01:12:02;;;;;;;1.52;1.17;;;;;;;23.51;47.56;92518.00;4932071;28;20031;-91
2022/08/15 01:14:31;;;;;;;2.00;1.23;;;;;;;23.51;47.74;92509.72;4962519;28;20045;-93
2022/08/15 01:17:05;;;;;;;1.40;1.23;;;;;;;23.52;47.66;92521.53;4987943;28;20137;-91
2022/08/15 01:19:40;;;;;;;2.17;1.65;;;;;;;23.51;47.43;92515.25;4977212;28;20038;-92
2022/08/15 01:22:14;;;;;;;1.90;1.20;;;;;;;23.51;47.61;92520.75;5013891;28;20056;-92
2022/08/15 01:24:59;;;;;;;1.45;1.20;;;;;;;23.51;47.60;92520.03;5069010;28;20036;-92
2022/08/15 01:27:29;;;;;;;1.52;1.17;;;;;;;23.52;47.48;92519.50;5009156;28;20094;-91
2022/08/15 01:29:59;;;;;;;1.25;1.00;;;;;;;23.50;47.49;92522.06;5006771;28;20059;-93
2022/08/15 01:32:26;;;;;;;1.33;1.20;;;;;;;23.51;47.73;92526.28;4959329;28;20125;-92
2022/08/15 01:34:52;;;;;;;1.50;1.13;;;;;;;23.50;47.39;92527.56;5009596;28;20045;-92
2022/08/15 01:37:24;;;;;;;2.25;1.85;;;;;;;23.50;47.64;92535.84;4976267;28;20120;-93
2022/08/15 01:40:06;;;;;;;1.58;1.20;;;;;;;23.50;47.42;92530.34;4959044;28;20038;-91
2022/08/15 01:42:41;;;;;;;2.58;1.70;;;;;;;23.49;47.51;92522.63;4951075;28;20045;-91
2022/08/15 01:45:11;;;;;;;1.88;1.67;;;;;;;23.48;47.58;92521.16;5020752;28;20037;-92
2022/08/15 01:47:58;;;;;;;1.27;1.10;;;;;;;23.50;47.66;92521.31;5006620;28;20293;-92
2022/08/15 01:50:44;;;;;;;1.83;1.40;;;;;;;23.50;47.45;92518.56;5005670;28;20064;-91
2022/08/15 01:53:25;;;;;;;1.55;1.25;;;;;;;23.48;47.24;92526.69;5004400;28;20074;-92
2022/08/15 01:56:01;;;;;;;1.40;1.10;;;;;;;23.50;47.56;92529.59;4959271;28;20050;-92
2022/08/15 01:58:40;;;;;;;1.70;1.27;;;;;;;23.47;47.44;92539.75;5001144;28;20564;-92
2022/08/15 02:01:21;;;;;;;1.35;1.00;;;;;;;23.47;47.72;92528.69;4993287;28;20038;-93
2022/08/15 02:03:57;;;;;;;1.35;0.93;;;;;;;23.49;47.52;92519.88;4944088;28;20049;-92
2022/08/15 02:06:26;;;;;;;1.60;1.27;;;;;;;23.48;47.75;92518.41;4991721;28;20125;-92
2022/08/15 02:09:04;;;;;;;2.00;1.23;;;;;;;23.46;47.56;92527.25;4965750;28;20081;-92
2022/08/15 02:11:33;;;;;;;1.45;1.15;;;;;;;23.47;47.82;92525.22;4971801;28;20038;-91
2022/08/15 02:14:04;;;;;;;1.05;0.95;;;;;;;23.46;47.52;92521.72;4961925;28;20047;-92
2022/08/15 02:16:37;;;;;;;1.42;1.02;;;;;;;23.45;47.59;92514.00;4992859;28;20042;-91
2022/08/15 02:19:21;;;;;;;1.85;1.38;;;;;;;23.46;47.51;92513.44;4957882;28;20039;-93
2022/08/15 02:22:06;;;;;;;1.33;1.13;;;;;;;23.46;47.55;92521.00;4979701;28;20502;-92
2022/08/15 02:24:36;;;;;;;1.70;1.20;;;;;;;23.46;47.63;92518.22;4954270;28;20035;-92
2022/08/15 02:27:05;;;;;;;2.28;1.38;;;;;;;23.46;47.65;92510.69;4970664;28;20042;-91
2022/08/15 02:29:35;;;;;;;1.63;1.35;;;;;;;23.45;47.79;92523.00;4949388;28;20043;-92
2022/08/15 02:32:17;;;;;;;1.27;1.13;;;;;;;23.44;47.43;92516.03;4939362;28;20046;-92
2022/08/15 02:34:44;;;;;;;1.45;1.20;;;;;;;23.44;47.76;92509.78;4958476;28;20043;-92
2022/08/15 02:37:24;;;;;;;2.00;1.48;;;;;;;23.44;47.77;92518.78;4967017;28;20045;-92
2022/08/15 02:39:52;;;;;;;1.80;1.33;;;;;;;23.45;47.63;92525.78;4990314;28;20085;-92
2022/08/15 02:42:25;;;;;;;1.30;1.10;;;;;;;23.46;47.58;92526.50;4965834;28;20038;-92
2022/08/15 02:44:51;;;;;;;1.33;1.13;;;;;;;23.45;47.82;92523.00;4947058;28;20019;-92
2022/08/15 02:47:20;;;;;;;1.88;1.40;;;;;;;23.44;47.29;92529.84;4945614;29;20123;-92
2022/08/15 02:49:52;;;;;;;1.73;1.50;;;;;;;23.46;47.83;92527.25;4949676;29;20044;-92
2022/08/15 02:52:24;;;;;;;1.90;1.58;;;;;;;23.44;47.72;92526.34;4903450;29;20092;-92
2022/08/15 02:55:01;;;;;;;1.90;1.30;;;;;;;23.44;47.73;92523.59;4888464;29;20095;-92
2022/08/15 02:57:40;;;;;;;3.28;1.15;;;;;;;23.43;47.58;92516.59;4888199;29;20040;-91
2022/08/15 03:00:15;;;;;;;2.20;1.30;;;;;;;23.42;47.38;92532.41;4899147;29;20123;-92
2022/08/15 03:03:02;;;;;;;1.63;1.20;;;;;;;23.43;47.49;92522.13;4887752;29;20068;-92
2022/08/15 03:05:40;;;;;;;1.65;1.20;;;;;;;23.43;47.40;92520.09;4866915;29;20041;-91
2022/08/15 03:08:14;;;;;;;2.03;1.35;;;;;;;23.43;47.66;92522.13;4863662;29;20049;-92
2022/08/15 03:10:47;;;;;;;1.50;1.20;;;;;;;23.42;47.48;92524.16;4888262;29;20073;-92
2022/08/15 03:13:17;;;;;;;1.75;1.23;;;;;;;23.43;47.54;92531.13;4889848;29;20044;-93
2022/08/15 03:15:52;;;;;;;1.42;1.20;;;;;;;23.41;47.67;92525.44;4884233;29;20151;-92
2022/08/15 03:18:24;;;;;;;1.98;1.25;;;;;;;23.40;47.76;92532.25;4897710;29;20051;-92
2022/08/15 03:20:52;;;;;;;1.75;1.30;;;;;;;23.41;47.57;92528.19;4912502;29;20054;-92
2022/08/15 03:23:21;;;;;;;1.45;0.90;;;;;;;23.42;47.47;92523.41;4905973;29;20049;-92
2022/08/15 03:25:51;;;;;;;1.15;1.05;;;;;;;23.42;47.46;92526.16;4927956;29;20047;-91
2022/08/15 03:28:35;;;;;;;1.55;0.90;;;;;;;23.40;47.56;92532.25;4883812;29;20039;-93
2022/08/15 03:31:07;;;;;;;1.40;1.17;;;;;;;23.41;47.55;92536.47;4884069;29;20068;-92
2022/08/15 03:33:34;;;;;;;1.35;1.08;;;;;;;23.40;47.58;92528.75;4879690;29;20040;-93
2022/08/15 03:36:08;;;;;;;2.53;1.23;;;;;;;23.40;47.61;92537.75;4876616;29;20041;-92
2022/08/15 03:38:39;;;;;;;1.38;0.95;;;;;;;23.42;47.33;92532.41;4886929;29;20028;-92
2022/08/15 03:41:10;;;;;;;2.53;1.30;;;;;;;23.41;47.63;92527.47;4930279;29;20040;-92
2022/08/15 03:43:46;;;;;;;1.88;1.33;;;;;;;23.40;47.47;92526.00;4912605;29;20460;-91
2022/08/15 03:46:16;;;;;;;1.85;0.90;;;;;;;23.40;47.64;92535.00;4925655;29;20050;-92
2022/08/15 03:48:45;;;;;;;;;;;;;;;23.41;47.50;92528.19;4902935;29;20104;-92
2022/08/15 03:51:12;;;;;;;1.50;0.98;;;;;;;23.40;47.48;92535.00;4924210;29;19918;-93
2022/08/15 03:53:44;;;;;;;1.88;1.20;;;;;;;23.38;47.52;92534.88;4912672;29;20051;-92
2022/08/15 03:56:20;;;;;;;1.25;0.98;;;;;;;23.38;47.61;92531.38;4911302;29;20151;-92
2022/08/15 03:58:57;;;;;;;1.02;0.80;;;;;;;23.38;47.61;92534.13;4949508;29;20047;-93
2022/08/15 04:01:25;;;;;;;1.55;0.95;;;;;;;23.36;47.62;92537.44;4897506;29;20043;-91
2022/08/15 04:03:53;;;;;;;1.30;1.10;;;;;;;23.37;47.56;92533.41;4944483;28;20039;-92
2022/08/15 04:06:26;;;;;;;1.25;0.98;;;;;;;23.37;47.68;92536.16;4948460;28;20041;-93
2022/08/15 04:09:05;;;;;;;;;;;;;;;23.39;47.37;92538.31;4947227;28;20106;-92
2022/08/15 04:11:41;;;;;;;2.20;1.10;;;;;;;23.37;47.58;92546.47;4967509;28;20360;-92
2022/08/15 04:14:12;;;;;;;1.33;0.88;;;;;;;23.37;47.69;92558.22;5002497;28;20049;-92
2022/08/15 04:16:41;;;;;;;1.35;1.13;;;;;;;23.36;47.62;92562.28;4974854;28;20035;-92
2022/08/15 04:19:24;;;;;;;1.48;1.08;;;;;;;23.37;47.55;92549.94;4988995;28;20034;-92
2022/08/15 04:21:49;;;;;;;1.15;1.00;;;;;;;23.39;47.66;92546.59;4971609;28;20077;-92
2022/08/15 04:24:18;;;;;;;2.10;1.33;;;;;;;23.38;47.68;92547.94;4990083;28;20481;-92
2022/08/15 04:26:46;;;;;;;1.70;1.00;;;;;;;23.37;47.62;92551.97;4987448;28;20042;-93
2022/08/15 04:29:23;;;;;;;0.98;0.88;;;;;;;23.41;47.42;92557.81;4991689;28;20089;-93
2022/08/15 04:32:06;;;;;;;1.73;1.08;;;;;;;23.39;47.55;92563.16;4910294;28;20043;-93
2022/08/15 04:34:38;;;;;;;1.30;0.93;;;;;;;23.41;47.42;92566.09;4892643;28;20118;-93
2022/08/15 04:37:12;;;;;;;1.20;0.93;;;;;;;23.40;47.53;92562.59;4950943;29;20050;-92
2022/08/15 04:39:40;;;;;;;1.55;0.93;;;;;;;23.43;47.42;92563.50;4967092;28;20046;-94
2022/08/15 04:42:21;;;;;;;2.60;0.80;;;;;;;23.44;47.53;92567.72;4937357;28;20061;-92
2022/08/15 04:44:49;;;;;;;1.10;1.00;;;;;;;23.47;47.16;92567.31;4921722;29;20730;-91
2022/08/15 04:47:19;;;;;;;1.15;0.80;;;;;;;23.45;47.36;92569.91;4931047;28;20093;-92
2022/08/15 04:49:57;;;;;;;0.85;0.65;;;;;;;23.45;47.53;92561.63;4953265;28;20051;-91
2022/08/15 04:52:25;;;;;;;1.13;0.85;;;;;;;23.49;47.40;92561.97;4974326;28;20074;-92
2022/08/15 04:54:58;;;;;;;1.73;1.15;;;;;;;23.48;47.27;92566.03;4956408;28;20039;-92
2022/08/15 04:57:25;;;;;;;0.63;0.60;;;;;;;23.51;47.12;92555.91;4893378;29;20107;-92
2022/08/15 04:59:57;;;;;;;0.80;0.70;;;;;;;23.50;47.14;92552.41;4971251;28;20076;-93
2022/08/15 05:02:45;;;;;;;1.00;0.80;;;;;;;23.52;47.12;92563.63;4909741;28;20091;-91
2022/08/15 05:05:14;;;;;;;1.13;0.85;;;;;;;23.54;47.17;92563.81;4914786;28;20130;-92
2022/08/15 05:07:42;;;;;;;1.85;0.90;;;;;;;23.54;47.19;92566.56;4973296;28;20042;-92
2022/08/15 05:10:14;;;;;;;1.02;0.90;;;;;;;23.54;47.15;92568.59;4964824;28;20069;-92
2022/08/15 05:12:46;;;;;;;1.50;0.90;;;;;;;23.56;47.28;92563.25;4928356;28;20098;-92
2022/08/15 05:15:15;;;;;;;0.70;0.60;;;;;;;23.60;46.91;92571.13;5114046;22;20045;-92
2022/08/15 05:17:56;;;;;;;0.85;0.68;;;;;;;23.60;47.10;92568.38;5025331;28;20041;-92
2022/08/15 05:20:41;;;;;;;1.10;0.90;;;;;;;23.62;47.08;92572.00;5012232;28;20072;-92
2022/08/15 05:23:11;;;;;;;1.02;0.93;;;;;;;23.62;46.95;92566.47;4974576;28;20123;-93
2022/08/15 05:25:48;;;;;;;;;;;;;;;23.62;46.96;92574.75;4993423;28;20075;-92
2022/08/15 05:28:18;;;;;;;0.73;0.47;;;;;;;23.64;47.03;92574.94;5043396;28;19955;-93
2022/08/15 05:30:53;;;;;;;1.92;0.90;;;;;;;23.66;46.79;92564.06;5026259;28;20041;-93
2022/08/15 05:33:33;;;;;;;0.95;0.60;;;;;;;23.67;46.93;92573.06;5058456;28;20068;-93
2022/08/15 05:36:06;;;;;;;0.50;0.50;;;;;;;23.69;46.85;92567.72;5005249;28;20040;-93
2022/08/15 05:38:40;;;;;;;0.73;0.52;;;;;;;23.71;46.82;92556.84;4964720;28;20451;-92
2022/08/15 05:41:31;;;;;;;0.70;0.50;;;;;;;23.67;46.98;92559.28;4970220;28;20054;-92
2022/08/15 05:44:09;;;;;;;0.70;0.50;;;;;;;23.70;46.83;92566.41;4994955;28;20034;-93
2022/08/15 05:47:12;;;;;;;0.70;0.47;;;;;;;23.72;46.84;92558.31;4937635;29;20588;-92
2022/08/15 05:50:06;;;;;;;0.75;0.50;;;;;;;23.74;46.90;92552.97;4938795;29;20051;-94
2022/08/15 05:52:43;;;;;;;0.45;0.43;;;;;;;23.76;46.74;92570.41;4909972;29;20067;-91
2022/08/15 05:55:39;;;;;;;0.45;0.40;;;;;;;23.76;46.64;92558.63;4899171;29;20040;-92
2022/08/15 05:58:34;;;;;;;0.60;0.52;;;;;;;23.77;46.90;92573.91;4900434;29;20051;-92
2022/08/15 06:01:42;;;;;;;0.52;0.50;;;;;;;23.77;46.79;92568.38;4888783;29;20080;-92
2022/08/15 06:04:39;;;;;;;0.63;0.60;;;;;;;23.81;46.59;92579.75;4839520;29;20050;-92
2022/08/15 06:07:10;;;;;;;1.75;0.60;;;;;;;23.79;46.68;92561.00;4848140;29;20202;-92
2022/08/15 06:09:42;;;;;;;1.73;0.45;;;;;;;23.84;46.57;92571.06;4841580;29;20049;-92
2022/08/15 06:12:25;;;;;;;0.40;0.40;;;;;;;23.86;46.62;92562.22;4852505;29;20033;-92
2022/08/15 06:14:53;;;;;;;0.65;0.50;;;;;;;23.85;46.47;92560.75;4853522;29;20068;-92
2022/08/15 06:17:24;;;;;;;0.80;0.50;;;;;;;23.86;46.52;92567.72;4907822;29;20548;-93
2022/08/15 06:19:56;;;;;;;;;;;;;;;23.85;46.47;92575.28;4940914;29;20047;-93
2022/08/15 06:22:49;;;;;;;0.70;0.45;;;;;;;23.87;46.60;92580.97;4939217;28;19929;-93
2022/08/15 06:25:34;;;;;;;0.88;0.60;;;;;;;23.89;46.56;92572.13;4950159;29;21031;-93
2022/08/15 06:28:31;;;;;;;0.47;0.35;;;;;;;23.88;46.48;92576.19;4946277;28;20248;-92
2022/08/15 06:31:05;;;;;;;0.73;0.43;;;;;;;23.91;46.41;92575.03;4950569;28;20058;-92
2022/08/15 06:34:15;;;;;;;0.52;0.40;;;;;;;23.93;46.33;92577.97;4971915;28;20038;-92
2022/08/15 06:36:57;;;;;;;0.60;0.60;;;;;;;23.93;46.46;92589.00;4951475;28;20039;-92
2022/08/15 06:39:42;;;;;;;;;;;;;;;23.94;46.35;92590.47;4912309;28;20075;-92
2022/08/15 06:42:32;;;;;;;0.50;0.50;;;;;;;23.99;46.38;92599.81;4937907;28;19922;-93
2022/08/15 06:45:05;;;;;;;0.50;0.30;;;;;;;23.99;46.12;92588.78;4994922;28;20043;-92
2022/08/15 06:47:36;;;;;;;0.93;0.40;;;;;;;24.00;46.14;92602.03;4920343;29;20130;-93
2022/08/15 06:50:18;;;;;;;0.65;0.40;;;;;;;24.00;46.23;92598.53;4934274;29;20522;-93
2022/08/15 06:52:52;;;;;;;0.30;0.30;;;;;;;24.04;46.13;92594.03;4918556;29;20043;-92
2022/08/15 06:55:23;;;;;;;0.82;0.52;;;;;;;24.06;46.16;92596.25;4900953;29;20043;-93
2022/08/15 06:58:06;;;;;;;0.60;0.40;;;;;;;24.03;46.07;92595.38;4934686;29;20047;-92
2022/08/15 07:00:46;;;;;;;0.75;0.47;;;;;;;24.07;46.22;92594.94;4933293;29;20043;-93
2022/08/15 07:03:53;;;;;;;0.50;0.50;;;;;;;24.04;46.27;92594.03;4918613;29;20079;-92
2022/08/15 07:06:31;;;;;;;0.90;0.70;;;;;;;24.07;46.13;92595.69;4867870;29;20096;-92
2022/08/15 07:09:08;;;;;;;1.50;0.60;;;;;;;24.09;46.08;92598.59;4869430;29;20049;-92
2022/08/15 07:11:42;;;;;;;0.43;0.43;;;;;;;24.10;46.14;92602.09;4872617;29;20067;-91
2022/08/15 07:14:30;;;;;;;0.75;0.50;;;;;;;24.11;46.39;92606.31;4865514;29;20048;-92
2022/08/15 07:17:12;;;;;;;0.50;0.50;;;;;;;24.11;46.18;92596.00;4916115;29;20083;-92
2022/08/15 07:19:42;;;;;;;1.88;0.63;;;;;;;24.15;46.10;92601.13;4874044;29;20049;-92
2022/08/15 07:22:11;;;;;;;0.68;0.52;;;;;;;24.14;46.08;92599.66;4870700;29;20041;-92
2022/08/15 07:24:49;;;;;;;0.80;0.60;;;;;;;24.14;46.08;92602.44;4856387;29;20041;-92
2022/08/15 07:27:16;;;;;;;1.65;0.43;;;;;;;24.16;46.05;92602.59;4844720;29;20033;-92
2022/08/15 07:29:49;;;;;;;0.80;0.50;;;;;;;24.19;46.11;92606.97;4858613;29;20037;-92
2022/08/15 07:32:25;;;;;;;0.43;0.43;;;;;;;24.18;46.07;92609.00;4846041;29;20605;-93
2022/08/15 07:35:16;;;;;;;0.75;0.57;;;;;;;24.19;45.97;92615.28;4857561;29;20186;-92
2022/08/15 07:38:03;;;;;;;0.75;0.60;;;;;;;24.19;46.08;92613.25;4837950;29;20601;-92
2022/08/15 07:40:37;;;;;;;0.82;0.60;;;;;;;24.23;46.09;92613.56;4864129;29;20093;-92
2022/08/15 07:43:32;;;;;;;1.00;0.70;;;;;;;24.21;46.15;92607.16;4870446;29;20041;-92
2022/08/15 07:46:21;;;;;;;1.10;0.70;;;;;;;24.19;46.01;92610.47;4871142;29;20053;-92
2022/08/15 07:48:58;;;;;;;1.25;0.77;;;;;;;24.20;46.06;92611.94;4867196;29;20445;-92
2022/08/15 07:51:32;;;;;;;0.70;0.50;;;;;;;24.20;46.12;92620.22;4891989;29;20105;-92
2022/08/15 07:54:04;;;;;;;1.10;0.80;;;;;;;24.25;46.38;92627.53;4896654;29;20072;-92
2022/08/15 07:56:33;;;;;;;0.88;0.70;;;;;;;24.27;45.94;92626.97;4912214;29;20103;-92
2022/08/15 07:59:20;;;;;;;0.68;0.60;;;;;;;24.25;46.10;92633.06;4880139;29;20505;-92
2022/08/15 08:01:59;;;;;;;1.02;0.82;;;;;;;24.30;46.11;92634.13;4882342;29;20096;-92
2022/08/15 08:04:29;;;;;;;1.13;0.60;;;;;;;24.26;46.12;92639.31;4879876;29;20415;-93
2022/08/15 08:07:23;;;;;;;1.08;0.82;;;;;;;24.22;46.52;92633.47;4868244;29;20037;-92
2022/08/15 08:10:12;;;;;;;1.58;0.90;;;;;;;24.24;46.24;92628.13;4837654;29;20240;-92
2022/08/15 08:12:59;;;;;;;1.65;1.15;;;;;;;24.23;46.24;92626.66;4863068;29;20076;-92
2022/08/15 08:16:16;;;;;;;1.50;1.05;;;;;;;24.23;46.56;92629.41;4868161;29;20128;-92
2022/08/15 08:19:17;;;;;;;1.85;1.20;;;;;;;24.23;46.21;92629.41;4809407;29;20038;-92
2022/08/15 08:22:02;;;;;;;1.90;1.38;;;;;;;24.24;46.57;92636.44;4852560;29;20041;-92
2022/08/15 08:24:55;;;;;;;3.15;1.38;;;;;;;24.22;46.44;92636.97;4785872;29;20051;-92
2022/08/15 08:27:59;;;;;;;3.05;1.60;;;;;;;24.21;46.45;92640.28;4789489;29;20055;-92
2022/08/15 08:30:33;;;;;;;2.63;1.25;;;;;;;24.26;46.34;92636.56;4762876;30;20135;-92
2022/08/15 08:33:20;;;;;;;3.03;1.70;;;;;;;24.23;46.56;92643.22;4764221;30;20418;-92
2022/08/15 08:36:06;;;;;;;2.85;1.60;;;;;;;24.25;46.18;92633.06;4762600;30;20047;-92
2022/08/15 08:38:45;;;;;;;3.05;1.60;;;;;;;24.29;46.23;92648.50;4754789;30;20040;-93
2022/08/15 08:41:36;;;;;;;3.58;1.83;;;;;;;24.26;46.13;92631.78;4768260;30;20315;-92
2022/08/15 08:44:30;;;;;;;2.45;1.50;;;;;;;24.24;46.33;92639.91;4771868;30;20067;-92
2022/08/15 08:47:00;;;;;;;2.70;1.58;;;;;;;24.26;46.30;92625.50;4789494;29;20072;-91
2022/08/15 08:49:56;;;;;;;2.67;1.50;;;;;;;24.24;46.43;92633.66;4798730;29;20051;-92
2022/08/15 08:52:54;;;;;;;3.17;1.80;;;;;;;24.25;46.35;92637.88;4786644;29;20084;-92
2022/08/15 08:55:30;;;;;;;3.05;1.80;;;;;;;24.27;46.24;92629.75;4870114;29;20046;-92
2022/08/15 08:58:11;;;;;;;4.40;2.20;;;;;;;24.29;46.24;92629.19;4850696;29;20049;-94
2022/08/15 09:00:51;;;;;;;5.72;2.72;;;;;;;24.26;46.22;92631.03;4871852;29;20049;-92
2022/08/15 09:03:21;;;;;;;4.95;2.75;;;;;;;24.29;46.00;92637.47;4878128;29;20064;-92
2022/08/15 09:05:51;;;;;;;4.57;2.50;;;;;;;24.27;46.43;92633.22;4870546;29;20044;-93
2022/08/15 09:08:51;;;;;;;5.45;2.63;;;;;;;24.26;46.35;92628.28;4899535;29;20119;-92
2022/08/15 09:11:41;;;;;;;6.78;2.70;;;;;;;24.27;46.55;92624.94;4889242;29;20057;-92
2022/08/15 09:14:20;;;;;;;4.13;2.47;;;;;;;24.29;46.44;92623.66;4882860;29;20040;-92
2022/08/15 09:16:49;;;;;;;5.67;2.40;;;;;;;24.28;46.40;92622.91;4875105;29;20084;-93
2022/08/15 09:19:18;;;;;;;5.88;2.95;;;;;;;24.30;46.47;92633.41;4851260;29;20056;-91
2022/08/15 09:21:53;;;;;;;4.05;2.60;;;;;;;24.26;46.61;92631.78;4877139;29;20518;-92
2022/08/15 09:24:20;;;;;;;6.20;3.30;;;;;;;24.32;46.45;92630.81;4863405;29;20111;-93
2022/08/15 09:26:50;;;;;;;6.47;3.85;;;;;;;24.29;46.73;92632.66;4890751;29;20128;-91
2022/08/15 09:29:42;;;;;;;7.32;3.92;;;;;;;24.27;46.57;92626.97;4877834;29;20048;-92
2022/08/15 09:32:16;;;;;;;6.57;3.90;;;;;;;24.31;46.52;92638.34;4835190;29;20052;-93
2022/08/15 09:35:13;;;;;;;6.43;3.70;;;;;;;24.27;46.40;92638.75;4842576;29;20090;-92
2022/08/15 09:38:09;;;;;;;8.93;4.30;;;;;;;24.25;46.42;92638.59;4828555;29;20045;-92
2022/08/15 09:41:33;;;;;;;7.88;4.53;;;;;;;24.25;46.38;92633.06;4827726;29;20077;-92
2022/08/15 09:44:40;;;;;;;7.65;3.80;;;;;;;24.25;46.80;92624.06;4774813;29;20047;-92
2022/08/15 09:47:27;;;;;;;7.95;4.05;;;;;;;24.24;46.83;92623.34;4764130;29;20549;-92
2022/08/15 09:50:42;;;;;;;6.78;4.20;;;;;;;24.25;46.68;92626.81;4808214;29;20039;-93
2022/08/15 09:53:28;;;;;;;8.55;3.88;;;;;;;24.26;47.00;92622.75;4777316;29;20043;-92
2022/08/15 09:56:07;;;;;;;8.80;5.07;;;;;;;24.26;46.46;92626.25;4785633;29;20123;-93
2022/08/15 09:58:52;;;;;;;8.77;4.57;;;;;;;24.26;46.84;92622.75;4777528;29;20134;-92
2022/08/15 10:01:28;;;;;;;9.65;5.65;;;;;;;24.29;46.65;92621.63;4779249;30;20134;-91
2022/08/15 10:04:05;;;;;;;12.48;5.22;;;;;;;24.29;46.82;92624.38;4767682;30;20071;-93
2022/08/15 10:07:04;;;;;;;7.80;4.95;;;;;;;24.25;46.78;92618.53;4794694;29;20070;-93
2022/08/15 10:09:37;;;;;;;10.55;5.88;;;;;;;24.27;46.51;92624.94;4776899;29;20043;-93
2022/08/15 10:12:21;;;;;;;9.80;5.53;;;;;;;24.29;46.48;92620.88;4770666;29;20048;-93
2022/08/15 10:15:01;;;;;;;10.63;6.43;;;;;;;24.27;46.54;92624.22;4799031;29;20545;-93
2022/08/15 10:17:34;;;;;;;11.68;5.55;;;;;;;24.29;46.69;92612.59;4793366;29;20078;-93
2022/08/15 10:20:20;;;;;;;11.93;6.65;;;;;;;24.26;46.83;92611.69;4791337;29;20081;-92
2022/08/15 10:23:08;;;;;;;10.65;5.82;;;;;;;24.29;46.58;92615.38;4812972;29;20373;-92
2022/08/15 10:26:00;;;;;;;14.07;7.03;;;;;;;24.32;46.99;92614.22;4857454;29;20044;-91
2022/08/15 10:28:29;;;;;;;12.70;6.28;;;;;;;24.37;46.67;92616.03;4881604;29;20048;-93
2022/08/15 10:31:01;;;;;;;13.90;6.53;;;;;;;24.36;46.54;92620.81;4917199;29;20429;-91
2022/08/15 10:33:33;;;;;;;11.85;6.35;;;;;;;24.34;46.76;92622.69;4929591;28;20580;-92
2022/08/15 10:36:18;;;;;;;15.75;8.25;;;;;;;24.32;46.59;92622.50;4957350;28;20121;-91
2022/08/15 10:38:52;;;;;;;12.15;7.20;;;;;;;24.34;46.76;92617.16;5003707;28;20036;-92
2022/08/15 10:41:47;;;;;;;12.93;6.72;;;;;;;24.34;46.41;92614.41;4987619;28;20744;-92
2022/08/15 10:44:41;;;;;;;13.23;7.43;;;;;;;24.34;46.52;92611.63;4991603;28;20041;-92
2022/08/15 10:47:17;;;;;;;14.82;7.85;;;;;;;24.35;46.56;92613.09;4973937;28;20393;-93
2022/08/15 10:49:57;;;;;;;14.45;8.05;;;;;;;24.31;46.72;92610.00;4952816;28;20435;-94
2022/08/15 10:52:36;;;;;;;16.00;8.05;;;;;;;24.32;46.55;92617.72;4939434;28;20404;-93
2022/08/15 10:55:27;;;;;;;15.52;8.77;;;;;;;24.34;46.55;92608.88;4959672;28;20053;-91
2022/08/15 10:58:09;;;;;;;14.13;7.65;;;;;;;24.32;46.65;92620.47;4954755;28;20046;-91
2022/08/15 11:00:55;;;;;;;14.77;8.02;;;;;;;24.32;46.90;92614.22;4975489;28;20509;-92
2022/08/15 11:03:34;;;;;;;12.65;7.80;;;;;;;24.32;46.64;92611.47;4898846;29;20118;-92
2022/08/15 11:06:15;;;;;;;14.13;8.15;;;;;;;24.32;46.70;92614.22;4920735;28;20065;-92
2022/08/15 11:08:50;;;;;;;15.35;9.13;;;;;;;24.33;46.51;92613.66;4974079;28;20046;-92
2022/08/15 11:11:16;;;;;;;13.60;8.55;;;;;;;24.34;46.84;92620.66;4925359;28;20047;-93
2022/08/15 11:13:53;;;;;;;13.95;8.18;;;;;;;24.35;46.61;92618.63;4937072;28;20054;-92
2022/08/15 11:16:31;;;;;;;14.88;8.55;;;;;;;24.35;46.50;92622.13;4930728;29;20043;-92
2022/08/15 11:19:15;;;;;;;16.58;9.68;;;;;;;24.34;47.27;92623.41;4933163;29;20044;-92
2022/08/15 11:21:56;;;;;;;14.40;8.65;;;;;;;24.34;46.79;92625.44;4940187;29;20046;-92
2022/08/15 11:24:39;;;;;;;15.80;8.80;;;;;;;24.33;46.77;92629.50;4931200;29;20454;-91
2022/08/15 11:27:21;;;;;;;17.67;10.00;;;;;;;24.32;46.65;92628.78;4905632;29;20059;-91
2022/08/15 11:30:08;;;;;;;15.43;9.30;;;;;;;24.37;46.65;92632.59;4892427;29;20050;-91
2022/08/15 11:32:39;;;;;;;19.67;9.98;;;;;;;24.35;46.81;92632.44;4947941;29;20102;-93
2022/08/15 11:35:28;;;;;;;17.63;9.75;;;;;;;24.32;46.83;92630.81;4878701;28;20560;-92
2022/08/15 11:38:01;;;;;;;17.20;9.18;;;;;;;24.34;47.09;92628.94;4946159;28;20050;-91
2022/08/15 11:40:36;;;;;;;16.95;9.57;;;;;;;24.33;47.19;92638.53;4906152;29;20047;-92
2022/08/15 11:43:07;;;;;;;13.98;9.57;;;;;;;24.33;47.35;92635.03;4906726;29;20277;-92
2022/08/15 11:45:36;;;;;;;19.52;9.75;;;;;;;24.35;46.97;92635.19;4914820;29;20119;-92
2022/08/15 11:48:11;;;;;;;16.70;8.13;;;;;;;24.33;47.16;92635.03;4974107;28;20029;-92
2022/08/15 11:50:42;;;;;;;18.40;10.00;;;;;;;24.35;47.36;92637.97;4994611;28;20125;-92
2022/08/15 11:53:10;;;;;;;15.70;9.35;;;;;;;24.34;46.93;92634.47;4952333;28;20400;-92
2022/08/15 11:55:54;;;;;;;20.90;10.55;;;;;;;24.34;47.12;92631.69;5009542;28;20073;-93
2022/08/15 11:58:35;;;;;;;14.55;9.20;;;;;;;24.36;47.25;92637.38;4941960;28;20100;-92
2022/08/15 12:01:28;;;;;;;19.50;10.77;;;;;;;24.32;47.06;92628.78;4926825;28;20140;-92
2022/08/15 12:04:06;;;;;;;18.73;11.25;;;;;;;24.35;46.97;92629.66;4937284;28;20035;-93
2022/08/15 12:06:44;;;;;;;21.80;11.50;;;;;;;24.39;47.06;92621.72;4958426;28;20071;-92
2022/08/15 12:09:28;;;;;;;17.50;10.35;;;;;;;24.33;47.28;92632.25;4970369;28;20035;-92
2022/08/15 12:11:56;;;;;;;18.27;10.32;;;;;;;24.39;47.18;92632.75;4883353;29;20082;-92
2022/08/15 12:14:27;;;;;;;19.52;10.70;;;;;;;24.34;47.10;92620.66;4835230;29;20432;-92
2022/08/15 12:17:00;;;;;;;16.60;10.00;;;;;;;24.37;46.89;92625.03;4849708;29;20049;-92
2022/08/15 12:19:37;;;;;;;18.50;10.35;;;;;;;24.37;47.22;92616.75;4885698;29;20093;-91
2022/08/15 12:22:14;;;;;;;19.20;11.55;;;;;;;24.36;47.30;92611.78;4910944;29;20083;-92
2022/08/15 12:24:46;;;;;;;20.27;10.82;;;;;;;24.38;46.77;92609.94;4907159;29;20040;-92
2022/08/15 12:27:13;;;;;;;18.05;11.80;;;;;;;24.36;47.04;92614.56;4923971;28;20048;-92